Time;durP1;ratioP1;P1;durP2;ratioP2;P2;SDS_P1;SDS_P2;PMS_P1;PMS_P2;Temp;Humidity;BMP_temperature;BMP_pressure;BME280_temperature;BME280_humidity;BME280_pressure;Samples;Min_cycle;Max_cycle;Signal;HPM_P1;HPM_P2
2023/07/15 00:00:59;;;;;;;19.02;10.35;;;;;;;-143.21;66.74;71102.63;5119130;27;20195;-80
2023/07/15 00:03:26;;;;;;;14.45;9.25;;;;;;;-143.21;67.08;71104.59;5112570;27;20196;-81
2023/07/15 00:05:53;;;;;;;15.98;9.30;;;;;;;-143.21;67.84;71124.44;5123581;27;20206;-82
2023/07/15 00:08:22;;;;;;;15.95;9.68;;;;;;;-143.21;67.99;71150.22;5116409;27;20226;-80
2023/07/15 00:10:48;;;;;;;15.48;9.50;;;;;;;-143.21;68.32;71162.09;5108142;27;20302;-81
2023/07/15 00:13:17;;;;;;;16.08;8.93;;;;;;;-143.21;68.20;71179.94;5115129;27;20204;-81
2023/07/15 00:15:47;;;;;;;17.60;9.02;;;;;;;-143.21;68.32;71181.94;5115936;27;20207;-82
2023/07/15 00:18:14;;;;;;;16.23;8.88;;;;;;;-143.21;68.55;71187.88;5115560;27;20769;-82
2023/07/15 00:20:41;;;;;;;12.48;9.07;;;;;;;-143.21;69.18;71193.81;5114714;27;20204;-81
2023/07/15 00:23:17;;;;;;;13.27;9.15;;;;;;;-143.21;69.47;71197.78;5111933;27;20196;-81
2023/07/15 00:25:46;;;;;;;15.65;9.57;;;;;;;-143.21;69.84;71197.78;5113010;27;20200;-81
2023/07/15 00:28:12;;;;;;;12.45;9.27;;;;;;;-143.21;69.97;71189.84;5119131;27;20204;-80
2023/07/15 00:30:39;;;;;;;16.05;9.13;;;;;;;-143.21;70.34;71195.81;5115203;27;20227;-80
2023/07/15 00:33:09;;;;;;;24.85;9.57;;;;;;;-143.21;70.14;71197.78;5114906;27;20615;-80
2023/07/15 00:35:36;;;;;;;12.25;8.52;;;;;;;-143.21;69.50;71185.88;5119551;27;20195;-81
2023/07/15 00:38:03;;;;;;;13.18;9.02;;;;;;;-143.21;69.75;71179.94;5118038;27;20196;-80
2023/07/15 00:40:36;;;;;;;14.15;8.65;;;;;;;-143.21;69.16;71177.97;5121069;27;20271;-80
2023/07/15 00:43:40;;;;;;;15.65;8.77;;;;;;;-143.21;69.11;71183.91;5118908;27;20195;-80
2023/07/15 00:46:31;;;;;;;17.05;8.70;;;;;;;-143.21;69.79;71197.78;5114544;27;20199;-80
2023/07/15 00:49:02;;;;;;;11.75;8.57;;;;;;;-143.21;69.94;71201.75;5120232;27;20235;-80
2023/07/15 00:51:31;;;;;;;15.60;8.98;;;;;;;-143.21;70.26;71209.69;5121091;27;20276;-80
2023/07/15 00:54:00;;;;;;;13.95;8.43;;;;;;;-143.21;70.05;71213.66;5117215;27;20214;-78
2023/07/15 00:56:28;;;;;;;14.35;8.63;;;;;;;-143.21;69.96;71213.66;5121723;27;20231;-78
2023/07/15 00:58:56;;;;;;;15.93;9.05;;;;;;;-143.21;70.23;71213.66;5113630;27;20256;-78
2023/07/15 01:01:23;;;;;;;12.40;9.10;;;;;;;-143.21;70.50;71219.59;5113012;27;20238;-78
2023/07/15 01:03:54;;;;;;;15.02;8.95;;;;;;;-143.21;70.21;71223.56;5114789;27;20210;-78
2023/07/15 01:06:21;;;;;;;14.15;8.45;;;;;;;-143.21;70.37;71231.50;5114600;27;20273;-78
2023/07/15 01:08:48;;;;;;;14.82;8.35;;;;;;;-143.21;70.55;71235.44;5111264;27;20582;-78
2023/07/15 01:11:15;;;;;;;11.77;8.50;;;;;;;-143.21;70.53;71237.44;5116439;27;21052;-77
2023/07/15 01:13:42;;;;;;;11.02;8.20;;;;;;;-143.21;70.61;71229.50;5113680;27;20212;-78
2023/07/15 01:16:09;;;;;;;15.35;8.88;;;;;;;-143.21;70.08;71221.56;5112458;27;20293;-78
2023/07/15 01:18:36;;;;;;;13.07;9.10;;;;;;;-143.21;69.61;71215.63;5123934;27;20727;-77
2023/07/15 01:21:06;;;;;;;13.77;8.90;;;;;;;-143.21;70.12;71223.56;5116141;27;20200;-80
2023/07/15 01:23:34;;;;;;;11.55;8.68;;;;;;;-143.21;70.46;71239.41;5116293;27;20200;-80
2023/07/15 01:26:01;;;;;;;11.70;8.85;;;;;;;-143.21;71.00;71247.34;5110434;27;20207;-80
2023/07/15 01:28:28;;;;;;;13.63;8.77;;;;;;;-143.21;71.04;71255.28;5110734;27;20291;-80
2023/07/15 01:30:58;;;;;;;14.05;9.00;;;;;;;-143.21;71.60;71261.22;5114237;27;20200;-79
2023/07/15 01:33:25;;;;;;;10.80;8.20;;;;;;;-143.21;71.81;71271.13;5114528;27;20200;-80
2023/07/15 01:35:52;;;;;;;21.60;8.98;;;;;;;-143.21;71.62;71279.06;5113705;27;20192;-81
2023/07/15 01:38:19;;;;;;;14.60;8.68;;;;;;;-143.21;72.27;71279.06;5113865;27;20257;-82
2023/07/15 01:40:47;;;;;;;15.40;8.35;;;;;;;-143.21;72.24;71285.03;5114352;27;20291;-81
2023/07/15 01:43:14;;;;;;;13.93;8.68;;;;;;;-143.21;72.62;71285.03;5109760;27;20250;-81
2023/07/15 01:45:41;;;;;;;15.50;8.48;;;;;;;-143.21;72.93;71288.97;5113116;27;20211;-81
2023/07/15 01:48:08;;;;;;;17.35;9.05;;;;;;;-143.21;73.15;71302.84;5116412;27;20253;-81
2023/07/15 01:50:35;;;;;;;13.20;9.05;;;;;;;-143.21;73.32;71308.81;5113388;27;20252;-80
2023/07/15 01:53:04;;;;;;;12.40;9.55;;;;;;;-143.21;73.11;71298.91;5115422;27;20697;-80
2023/07/15 01:55:31;;;;;;;18.35;9.20;;;;;;;-143.21;72.86;71288.97;5109844;28;20199;-80
2023/07/15 01:58:01;;;;;;;12.73;9.10;;;;;;;-143.21;72.68;71288.97;5113332;27;20817;-80
2023/07/15 02:00:28;;;;;;;12.88;8.85;;;;;;;-143.21;73.36;71306.81;5114679;27;20325;-80
2023/07/15 02:02:55;;;;;;;16.65;9.35;;;;;;;-143.21;73.78;71316.75;5112455;27;20200;-80
2023/07/15 02:05:22;;;;;;;17.48;9.95;;;;;;;-143.21;74.15;71326.66;5120236;27;20311;-79
2023/07/15 02:07:49;;;;;;;17.98;9.80;;;;;;;-143.21;74.38;71332.59;5117295;27;20206;-80
2023/07/15 02:10:17;;;;;;;16.75;9.25;;;;;;;-143.21;74.91;71328.63;5113284;27;20219;-80
2023/07/15 02:12:44;;;;;;;16.92;10.38;;;;;;;-143.21;74.80;71336.56;5113441;27;20235;-81
2023/07/15 02:15:12;;;;;;;15.18;9.25;;;;;;;-143.21;74.91;71340.53;5113897;27;20204;-80
2023/07/15 02:17:39;;;;;;;14.45;10.32;;;;;;;-143.21;75.34;71346.47;5113103;28;20678;-80
2023/07/15 02:20:08;;;;;;;15.35;10.07;;;;;;;-143.21;75.37;71344.50;5110654;27;20226;-81
2023/07/15 02:22:34;;;;;;;17.13;9.77;;;;;;;-143.21;75.59;71350.44;5114932;27;20255;-80
2023/07/15 02:25:01;;;;;;;13.40;9.45;;;;;;;-143.21;75.70;71352.44;5115356;27;20279;-80
2023/07/15 02:27:32;;;;;;;19.05;9.73;;;;;;;-143.21;76.09;71354.41;5113269;27;20204;-80
2023/07/15 02:29:58;;;;;;;15.07;9.20;;;;;;;-143.21;75.11;71342.50;5109120;28;20231;-80
2023/07/15 02:32:42;;;;;;;15.68;9.65;;;;;;;-143.21;74.39;71328.63;5120484;27;20232;-80
2023/07/15 02:35:10;;;;;;;14.73;9.30;;;;;;;-143.21;74.20;71320.69;5112161;28;20233;-80
2023/07/15 02:37:38;;;;;;;15.15;9.65;;;;;;;-143.21;74.68;71338.53;5114147;28;20211;-80
2023/07/15 02:40:06;;;;;;;16.75;9.32;;;;;;;-143.21;74.88;71356.38;5112495;28;20290;-81
2023/07/15 02:42:33;;;;;;;14.98;9.75;;;;;;;-143.21;75.71;71368.28;5113487;28;20283;-78
2023/07/15 02:45:03;;;;;;;16.83;9.90;;;;;;;-143.21;75.75;71374.22;5109217;28;20227;-78
2023/07/15 02:47:30;;;;;;;15.77;10.13;;;;;;;-143.21;76.12;71376.22;5120176;28;20916;-78
2023/07/15 02:49:58;;;;;;;13.90;9.30;;;;;;;-143.21;75.89;71384.16;5108949;28;20235;-78
2023/07/15 02:52:25;;;;;;;14.32;10.80;;;;;;;-143.21;76.21;71384.16;5115992;28;20686;-78
2023/07/15 02:54:52;;;;;;;15.55;9.95;;;;;;;-143.21;75.98;71386.13;5109324;28;20249;-78
2023/07/15 02:57:19;;;;;;;13.77;10.27;;;;;;;-143.21;76.07;71384.16;5123181;28;20204;-78
2023/07/15 02:59:45;;;;;;;15.88;10.50;;;;;;;-143.21;76.35;71384.16;5109100;28;20200;-78
2023/07/15 03:02:12;;;;;;;19.35;10.23;;;;;;;-143.21;76.08;71380.19;5108440;28;20215;-78
2023/07/15 03:04:39;;;;;;;15.93;9.60;;;;;;;-143.21;76.23;71396.03;5119531;28;20694;-78
2023/07/15 03:07:10;;;;;;;15.68;9.40;;;;;;;-143.21;75.84;71388.09;5108716;28;20231;-78
2023/07/15 03:09:37;;;;;;;12.95;9.32;;;;;;;-143.21;75.54;71382.16;5121558;28;20227;-78
2023/07/15 03:12:05;;;;;;;18.38;10.27;;;;;;;-143.21;74.70;71372.25;5116712;28;20738;-78
2023/07/15 03:14:31;;;;;;;17.25;9.82;;;;;;;-143.21;74.64;71370.28;5113218;28;20265;-78
2023/07/15 03:16:58;;;;;;;16.98;10.05;;;;;;;-143.21;74.93;71380.19;5124814;27;20207;-78
2023/07/15 03:19:25;;;;;;;14.73;9.70;;;;;;;-143.21;74.86;71380.19;5117077;28;20617;-77
2023/07/15 03:21:52;;;;;;;21.15;10.10;;;;;;;-143.21;75.53;71398.03;5103561;28;20212;-78
2023/07/15 03:24:23;;;;;;;13.23;9.90;;;;;;;-143.21;75.61;71398.03;5120826;28;20200;-78
2023/07/15 03:26:49;;;;;;;19.58;10.25;;;;;;;-143.21;76.06;71405.94;5106136;28;20215;-78
2023/07/15 03:29:16;;;;;;;17.73;10.20;;;;;;;-143.21;76.56;71413.88;5113400;28;20282;-78
2023/07/15 03:31:43;;;;;;;17.25;10.07;;;;;;;-143.21;76.87;71421.81;5112565;28;20219;-77
2023/07/15 03:34:10;;;;;;;13.27;10.07;;;;;;;-143.21;76.74;71415.88;5123625;27;20246;-78
2023/07/15 03:36:37;;;;;;;14.20;10.45;;;;;;;-143.21;76.69;71409.91;5117858;27;20192;-78
2023/07/15 03:39:04;;;;;;;15.80;10.18;;;;;;;-143.21;76.76;71407.94;5118653;27;20199;-77
2023/07/15 03:41:32;;;;;;;20.02;10.05;;;;;;;-143.21;76.85;71415.88;5116957;27;20203;-78
2023/07/15 03:43:59;;;;;;;17.80;10.73;;;;;;;-143.21;77.32;71413.88;5114912;27;20219;-78
2023/07/15 03:46:26;;;;;;;17.48;9.93;;;;;;;-143.21;76.32;71396.03;5117742;27;20284;-78
2023/07/15 03:48:52;;;;;;;17.85;10.05;;;;;;;-143.21;76.26;71390.09;5117264;27;20258;-77
2023/07/15 03:51:19;;;;;;;13.15;9.73;;;;;;;-143.21;75.33;71374.22;5117182;27;20203;-77
2023/07/15 03:53:46;;;;;;;15.20;10.35;;;;;;;-143.21;75.33;71380.19;5117528;27;20227;-77
2023/07/15 03:56:14;;;;;;;15.93;10.73;;;;;;;-143.21;75.64;71386.13;5112443;27;20210;-78
2023/07/15 03:58:43;;;;;;;18.30;9.80;;;;;;;-143.21;75.77;71396.03;5123987;27;20218;-78
2023/07/15 04:01:09;;;;;;;22.00;10.80;;;;;;;-143.21;76.09;71403.97;5117191;27;20208;-78
2023/07/15 04:03:36;;;;;;;15.43;9.77;;;;;;;-143.21;76.30;71415.88;5120994;27;20264;-78
2023/07/15 04:06:03;;;;;;;18.80;10.35;;;;;;;-143.21;76.71;71423.78;5114128;27;20192;-79
2023/07/15 04:08:30;;;;;;;14.38;10.13;;;;;;;-143.21;76.78;71429.75;5117125;27;20207;-78
2023/07/15 04:10:57;;;;;;;18.05;10.70;;;;;;;-143.21;77.04;71441.63;5113675;27;20770;-78
2023/07/15 04:13:24;;;;;;;20.48;10.80;;;;;;;-143.21;76.77;71437.69;5120285;27;20219;-78
2023/07/15 04:15:52;;;;;;;24.33;11.18;;;;;;;-143.21;76.75;71435.69;5116511;27;20207;-78
2023/07/15 04:18:19;;;;;;;13.40;10.10;;;;;;;-143.21;76.98;71445.59;5116679;27;20207;-78
2023/07/15 04:20:45;;;;;;;13.25;10.55;;;;;;;-143.21;77.14;71439.66;5114804;27;20208;-79
2023/07/15 04:23:12;;;;;;;14.55;10.55;;;;;;;-143.21;76.23;71435.69;5122440;27;20207;-79
2023/07/15 04:25:40;;;;;;;14.60;11.00;;;;;;;-143.21;75.77;71429.75;5118313;27;20250;-77
2023/07/15 04:28:06;;;;;;;18.23;11.38;;;;;;;-143.21;75.25;71423.78;5112970;27;20227;-78
2023/07/15 04:30:34;;;;;;;17.55;10.48;;;;;;;-143.21;74.79;71417.84;5118642;27;20669;-77
2023/07/15 04:33:02;;;;;;;18.80;10.52;;;;;;;-143.21;75.30;71427.75;5111664;27;20705;-78
2023/07/15 04:35:29;;;;;;;16.13;10.82;;;;;;;-143.21;75.56;71429.75;5109217;27;20211;-78
2023/07/15 04:37:56;;;;;;;15.60;10.60;;;;;;;-143.21;75.73;71439.66;5109332;27;20200;-78
2023/07/15 04:40:23;;;;;;;17.30;11.13;;;;;;;-143.21;75.75;71433.72;5119070;27;20239;-77
2023/07/15 04:42:49;;;;;;;15.65;9.88;;;;;;;-143.21;76.07;71449.56;5112777;27;20250;-78
2023/07/15 04:45:16;;;;;;;20.02;11.18;;;;;;;-143.21;76.72;71461.47;5107112;27;20212;-78
2023/07/15 04:47:43;;;;;;;17.48;11.63;;;;;;;-143.21;76.99;71471.38;5114791;27;20583;-78
2023/07/15 04:50:11;;;;;;;20.17;11.85;;;;;;;-143.21;76.94;71451.56;5115557;27;20575;-78
2023/07/15 04:52:38;;;;;;;25.45;11.73;;;;;;;-143.21;76.77;71445.59;5121733;27;20222;-78
2023/07/15 04:55:06;;;;;;;17.60;11.90;;;;;;;-143.21;76.77;71441.63;5113062;27;20670;-78
2023/07/15 04:57:32;;;;;;;16.45;11.65;;;;;;;-143.21;76.37;71435.69;5108753;27;20204;-78
2023/07/15 04:59:59;;;;;;;19.25;12.30;;;;;;;-143.21;76.47;71429.75;5111715;27;20651;-78
2023/07/15 05:02:26;;;;;;;16.33;12.30;;;;;;;-143.21;75.85;71419.84;5112582;27;20204;-79
2023/07/15 05:04:53;;;;;;;18.40;12.65;;;;;;;-143.21;75.08;71402.00;5112324;27;20207;-79
2023/07/15 05:07:22;;;;;;;15.02;11.18;;;;;;;-143.21;74.79;71394.06;5112714;27;20685;-78
2023/07/15 05:09:50;;;;;;;18.48;11.95;;;;;;;-143.21;75.43;71413.88;5111734;27;20207;-77
2023/07/15 05:12:17;;;;;;;17.27;11.27;;;;;;;-143.21;75.53;71425.78;5122657;27;20219;-78
2023/07/15 05:14:43;;;;;;;18.40;11.82;;;;;;;-143.21;76.35;71427.75;5122086;27;20268;-79
2023/07/15 05:17:10;;;;;;;16.95;12.07;;;;;;;-143.21;76.24;71421.81;5125268;27;20214;-78
2023/07/15 05:19:38;;;;;;;14.38;11.65;;;;;;;-143.21;76.11;71425.78;5111717;27;20287;-79
2023/07/15 05:22:06;;;;;;;16.50;12.25;;;;;;;-143.21;76.40;71415.88;5124306;27;20254;-77
2023/07/15 05:24:35;;;;;;;17.45;12.10;;;;;;;-143.21;76.34;71415.88;5117518;27;20609;-78
2023/07/15 05:27:02;;;;;;;17.65;12.00;;;;;;;-143.21;76.46;71402.00;5123516;27;20203;-77
2023/07/15 05:29:28;;;;;;;18.17;11.93;;;;;;;-143.21;76.91;71398.03;5121542;27;20203;-77
2023/07/15 05:31:55;;;;;;;20.92;12.10;;;;;;;-143.21;76.31;71382.16;5117736;27;20630;-77
2023/07/15 05:34:22;;;;;;;18.40;11.82;;;;;;;-143.21;76.32;71380.19;5119017;27;20210;-77
2023/07/15 05:36:49;;;;;;;20.33;12.73;;;;;;;-143.21;76.35;71378.19;5108890;27;20207;-78
2023/07/15 05:39:16;;;;;;;15.30;11.75;;;;;;;-143.21;75.27;71368.28;5108276;27;20204;-78
2023/07/15 05:41:44;;;;;;;23.92;12.32;;;;;;;-143.21;74.67;71344.50;5114538;27;20218;-78
2023/07/15 05:44:11;;;;;;;18.17;11.57;;;;;;;-143.21;73.75;71318.72;5121263;27;20301;-78
2023/07/15 05:46:38;;;;;;;27.20;12.65;;;;;;;-143.21;73.12;71296.91;5117521;27;20206;-78
2023/07/15 05:49:05;;;;;;;16.05;12.13;;;;;;;-143.21;72.26;71290.97;5118796;27;20627;-78
2023/07/15 05:51:33;;;;;;;21.05;12.18;;;;;;;-143.21;72.50;71304.84;5116713;27;20276;-78
2023/07/15 05:54:01;;;;;;;17.27;12.00;;;;;;;-143.21;72.59;71318.72;5124202;27;20214;-78
2023/07/15 05:56:28;;;;;;;18.05;11.68;;;;;;;-143.21;73.56;71326.66;5115405;27;20210;-78
2023/07/15 05:58:56;;;;;;;22.40;12.38;;;;;;;-143.21;73.21;71332.59;5114241;27;20261;-79
2023/07/15 06:01:23;;;;;;;26.08;12.18;;;;;;;-143.21;73.28;71330.63;5124637;27;20880;-78
2023/07/15 06:03:50;;;;;;;16.30;11.63;;;;;;;-143.21;73.46;71330.63;5117882;27;20207;-78
2023/07/15 06:06:17;;;;;;;24.08;12.07;;;;;;;-143.21;73.89;71322.69;5110770;27;20203;-78
2023/07/15 06:08:45;;;;;;;22.48;12.63;;;;;;;-143.21;73.75;71314.75;5114411;27;20199;-78
2023/07/15 06:11:12;;;;;;;22.50;12.63;;;;;;;-143.21;73.46;71308.81;5118215;27;20208;-84
2023/07/15 06:13:39;;;;;;;18.88;12.52;;;;;;;-143.21;73.08;71285.03;5108703;27;20781;-83
2023/07/15 06:16:07;;;;;;;18.63;12.15;;;;;;;-143.21;71.31;71247.34;5108900;28;20268;-83
2023/07/15 06:18:34;;;;;;;21.38;12.55;;;;;;;-143.21;70.65;71243.38;5111655;27;20200;-84
2023/07/15 06:21:01;;;;;;;20.02;12.02;;;;;;;-143.21;70.48;71227.53;5108382;28;20203;-83
2023/07/15 06:23:28;;;;;;;17.95;13.70;;;;;;;-143.21;70.21;71233.47;5111857;27;20207;-82
2023/07/15 06:25:56;;;;;;;20.42;13.07;;;;;;;-143.21;71.03;71247.34;5114129;27;20203;-82
2023/07/15 06:28:23;;;;;;;18.83;11.40;;;;;;;-143.21;68.52;71237.44;5106865;28;20208;-84
2023/07/15 06:30:50;;;;;;;14.90;10.50;;;;;;;-143.21;68.71;71227.53;5108787;28;20309;-83
2023/07/15 06:33:18;;;;;;;21.58;12.50;;;;;;;-143.21;66.48;71213.66;5115616;27;20316;-83
2023/07/15 06:35:45;;;;;;;16.20;11.68;;;;;;;-143.21;66.34;71201.75;5108400;28;20278;-84
2023/07/15 06:38:12;;;;;;;19.55;11.93;;;;;;;-143.21;67.83;71193.81;5108615;28;20216;-82
2023/07/15 06:40:38;;;;;;;26.00;14.00;;;;;;;-143.21;68.86;71185.88;5111101;28;20215;-83
2023/07/15 06:43:05;;;;;;;22.05;13.88;;;;;;;-143.21;68.41;71179.94;5111120;28;20192;-81
2023/07/15 06:45:33;;;;;;;21.30;11.88;;;;;;;-143.21;64.14;71177.97;5113127;28;20207;-80
2023/07/15 06:48:00;;;;;;;18.70;11.55;;;;;;;-143.21;64.36;71177.97;5108873;28;20330;-86
2023/07/15 06:50:29;;;;;;;26.02;13.18;;;;;;;-143.21;68.40;71164.09;5112513;28;20199;-81
2023/07/15 06:52:56;;;;;;;20.42;14.43;;;;;;;-143.21;67.40;71152.19;5119854;27;20215;-85
2023/07/15 06:55:22;;;;;;;18.08;12.38;;;;;;;-143.21;65.99;71132.38;5113985;28;20203;-87
2023/07/15 06:57:49;;;;;;;18.45;12.85;;;;;;;-143.21;65.99;71100.66;5115356;28;20206;-84
2023/07/15 07:00:16;;;;;;;19.77;12.15;;;;;;;-143.21;64.19;71100.66;5108176;28;20203;-82
2023/07/15 07:02:44;;;;;;;21.48;13.00;;;;;;;-143.21;64.45;71092.72;5114067;28;20635;-81
2023/07/15 07:05:10;;;;;;;17.75;11.73;;;;;;;-143.21;64.37;71090.72;5117448;27;20218;-82
2023/07/15 07:07:38;;;;;;;17.25;11.50;;;;;;;-143.21;61.38;71104.59;5111564;27;20206;-83
2023/07/15 07:10:06;;;;;;;18.00;12.25;;;;;;;-143.21;64.17;71094.69;5112752;27;20200;-84
2023/07/15 07:12:33;;;;;;;18.17;12.15;;;;;;;-143.21;63.08;71098.66;5112541;27;20200;-83
2023/07/15 07:15:00;;;;;;;20.05;12.52;;;;;;;-143.21;62.32;71088.75;5112380;28;20265;-85
2023/07/15 07:17:28;;;;;;;18.50;12.38;;;;;;;-143.21;63.74;71068.94;5112828;28;20200;-83
2023/07/15 07:19:55;;;;;;;19.85;12.55;;;;;;;-143.21;63.03;71061.00;5111015;27;20196;-84
2023/07/15 07:22:22;;;;;;;18.63;12.45;;;;;;;-143.21;63.27;71059.00;5112095;28;20316;-84
2023/07/15 07:24:52;;;;;;;22.92;12.10;;;;;;;-143.21;61.40;71037.22;5113299;27;20739;-84
2023/07/15 07:27:18;;;;;;;25.42;12.82;;;;;;;-143.21;62.44;71035.22;5114497;28;20658;-83
2023/07/15 07:29:46;;;;;;;21.02;12.30;;;;;;;-143.21;62.04;71009.44;5114377;27;20666;-85
2023/07/15 07:32:12;;;;;;;24.30;16.80;;;;;;;-143.21;59.64;70991.63;5116965;27;20740;-83
2023/07/15 07:34:39;;;;;;;24.73;14.02;;;;;;;-143.21;61.13;70983.69;5115230;27;20232;-84
2023/07/15 07:37:06;;;;;;;18.42;11.68;;;;;;;-143.21;59.81;70946.03;5113996;27;20212;-84
2023/07/15 07:39:33;;;;;;;27.65;12.25;;;;;;;-143.21;59.06;70928.19;5114810;28;20207;-84
2023/07/15 07:42:01;;;;;;;22.15;13.55;;;;;;;-143.21;58.80;70910.34;5121336;27;20241;-85
2023/07/15 07:44:28;;;;;;;25.42;13.35;;;;;;;-143.21;58.61;70908.34;5114940;28;20204;-87
2023/07/15 07:46:55;;;;;;;47.58;25.58;;;;;;;-143.21;57.12;70936.09;5114519;27;20265;-84
2023/07/15 07:49:22;;;;;;;23.25;14.63;;;;;;;-143.21;58.64;70948.00;5118438;27;20255;-86
2023/07/15 07:51:48;;;;;;;26.40;14.25;;;;;;;-143.21;58.71;70936.09;5110844;28;20219;-86
2023/07/15 07:54:15;;;;;;;21.90;12.32;;;;;;;-143.21;57.61;70898.44;5115549;27;20231;-86
2023/07/15 07:56:42;;;;;;;17.40;11.30;;;;;;;-143.21;56.44;70882.59;5116829;27;20611;-85
2023/07/15 07:59:13;;;;;;;17.20;12.00;;;;;;;-143.21;56.69;70874.66;5111866;28;20599;-86
2023/07/15 08:01:40;;;;;;;16.17;11.68;;;;;;;-143.21;55.05;70868.72;5112122;27;20208;-86
2023/07/15 08:04:07;;;;;;;30.60;19.02;;;;;;;-143.21;54.33;70870.69;5111781;27;20200;-86
2023/07/15 08:06:34;;;;;;;26.98;17.00;;;;;;;-143.21;52.29;70886.53;5112029;27;20212;-85
2023/07/15 08:09:01;;;;;;;21.30;12.25;;;;;;;-143.21;56.61;70880.59;5111122;28;20318;-84
2023/07/15 08:11:28;;;;;;;26.65;15.63;;;;;;;-143.21;53.89;70880.59;5112559;28;20199;-85
2023/07/15 08:13:58;;;;;;;21.90;12.25;;;;;;;-143.21;55.63;70856.81;5113186;28;20227;-84
2023/07/15 08:16:31;;;;;;;23.35;13.93;;;;;;;-143.21;53.51;70854.84;5112579;27;20204;-85
2023/07/15 08:18:58;;;;;;;16.20;11.98;;;;;;;-143.21;54.96;70856.81;5109863;27;20208;-86
2023/07/15 08:21:26;;;;;;;22.85;13.57;;;;;;;-143.21;55.09;70835.00;5109770;27;20207;-87
2023/07/15 08:23:53;;;;;;;19.33;12.73;;;;;;;-143.21;55.78;70829.06;5118208;27;20199;-84
2023/07/15 08:26:20;;;;;;;21.02;11.18;;;;;;;-143.21;55.90;70827.06;5108677;28;20268;-86
2023/07/15 08:28:47;;;;;;;20.10;11.52;;;;;;;-143.21;54.70;70785.44;5109221;27;20196;-82
2023/07/15 08:31:13;;;;;;;19.92;11.98;;;;;;;-143.21;54.51;70775.53;5118241;27;20232;-83
2023/07/15 08:33:42;;;;;;;19.38;11.80;;;;;;;-143.21;51.17;70805.28;5108896;28;20223;-84
2023/07/15 08:36:09;;;;;;;19.98;11.90;;;;;;;-143.21;51.85;70831.03;5111262;28;20204;-88
2023/07/15 08:38:36;;;;;;;19.35;12.20;;;;;;;-143.21;52.23;70844.91;5111358;27;20218;-84
2023/07/15 08:41:03;;;;;;;19.80;12.95;;;;;;;-143.21;51.65;70805.28;5114594;27;20203;-84
2023/07/15 08:43:30;;;;;;;24.70;12.27;;;;;;;-143.21;54.64;70797.34;5111294;28;20627;-84
2023/07/15 08:46:00;;;;;;;17.23;11.55;;;;;;;-143.21;52.88;70761.66;5111888;28;20200;-85
2023/07/15 08:48:28;;;;;;;18.33;10.82;;;;;;;-143.21;54.77;70722.03;5111302;28;20288;-86
2023/07/15 08:50:58;;;;;;;20.15;11.38;;;;;;;-143.21;52.34;70698.22;5110940;27;20208;-84
2023/07/15 08:53:27;;;;;;;20.27;13.65;;;;;;;-143.21;50.85;70735.91;5109001;28;20220;-87
2023/07/15 08:55:56;;;;;;;16.67;10.80;;;;;;;-143.21;52.28;70716.06;5112272;27;20277;-84
2023/07/15 08:58:23;;;;;;;18.30;11.60;;;;;;;-143.21;51.71;70688.31;5100534;27;20215;-86
2023/07/15 09:00:51;;;;;;;16.48;10.88;;;;;;;-143.21;50.79;70658.59;5111373;28;20200;-85
2023/07/15 09:03:18;;;;;;;14.82;10.50;;;;;;;-143.21;50.21;70630.84;5111218;27;20200;-84
2023/07/15 09:05:45;;;;;;;19.33;10.90;;;;;;;-143.21;48.23;70670.47;5114306;27;20235;-85
2023/07/15 09:08:15;;;;;;;15.63;11.15;;;;;;;-143.21;48.95;70706.16;5111170;28;20208;-85
2023/07/15 09:10:52;;;;;;;16.90;10.40;;;;;;;-143.21;51.30;70712.09;5114159;27;20602;-85
2023/07/15 09:13:26;;;;;;;16.27;11.07;;;;;;;-143.21;50.86;70694.25;5115573;27;20586;-85
2023/07/15 09:15:53;;;;;;;15.77;10.63;;;;;;;-143.21;46.92;70676.44;5107815;28;20203;-84
2023/07/15 09:18:20;;;;;;;19.00;12.55;;;;;;;-143.21;48.82;70716.06;5114812;27;20192;-86
2023/07/15 09:20:47;;;;;;;17.80;10.40;;;;;;;-143.21;51.50;70674.44;5118099;27;20199;-85
2023/07/15 09:23:16;;;;;;;18.58;10.50;;;;;;;-143.21;51.00;70650.66;5111158;28;20619;-85
2023/07/15 09:25:50;;;;;;;14.13;10.13;;;;;;;-143.21;50.44;70678.41;5110649;28;20725;-85
2023/07/15 09:28:18;;;;;;;17.33;11.18;;;;;;;-143.21;50.63;70607.06;5111654;28;20199;-84
2023/07/15 09:30:45;;;;;;;16.90;10.93;;;;;;;-143.21;49.76;70575.34;5109861;28;20589;-84
2023/07/15 09:33:29;;;;;;;16.02;11.15;;;;;;;-143.21;49.54;70525.78;5110667;28;20208;-87
2023/07/15 09:35:56;;;;;;;23.58;11.32;;;;;;;-143.21;49.22;70509.94;5110738;27;20280;-85
2023/07/15 09:38:24;;;;;;;18.40;11.63;;;;;;;-143.21;48.60;70480.19;5110527;28;20203;-84
2023/07/15 09:40:51;;;;;;;15.55;10.27;;;;;;;-143.21;47.24;70468.31;5107516;28;20192;-86
2023/07/15 09:43:19;;;;;;;16.60;10.65;;;;;;;-143.21;47.66;70470.28;5107446;28;20674;-85
2023/07/15 09:45:46;;;;;;;17.95;10.88;;;;;;;-143.21;47.43;70460.38;5110881;28;20200;-86
2023/07/15 09:48:16;;;;;;;15.80;10.75;;;;;;;-143.21;47.78;70442.53;5110579;28;20307;-85
2023/07/15 09:50:43;;;;;;;22.05;10.85;;;;;;;-143.21;46.29;70468.31;5110718;28;20215;-82
2023/07/15 09:53:11;;;;;;;18.38;11.00;;;;;;;-143.21;47.10;70490.09;5114656;27;20211;-84
2023/07/15 09:55:40;;;;;;;13.88;10.35;;;;;;;-143.21;46.87;70462.34;5111291;28;20219;-84
2023/07/15 09:58:13;;;;;;;17.30;11.45;;;;;;;-143.21;45.10;70505.97;5110929;28;20203;-87
2023/07/15 10:00:44;;;;;;;17.50;11.20;;;;;;;-143.21;47.05;70519.84;5110506;28;20234;-82
2023/07/15 10:03:19;;;;;;;14.13;11.05;;;;;;;-143.21;47.29;70496.06;5110333;28;20297;-84
2023/07/15 10:05:48;;;;;;;14.43;10.60;;;;;;;-143.21;46.82;70492.09;5110602;28;20206;-83
2023/07/15 10:08:14;;;;;;;22.45;11.85;;;;;;;-143.21;47.73;70452.44;5110659;28;20369;-84
2023/07/15 10:10:43;;;;;;;18.48;10.93;;;;;;;-143.21;45.98;70428.66;5111009;28;20219;-84
2023/07/15 10:13:11;;;;;;;19.50;11.45;;;;;;;-143.21;45.54;70434.59;5110222;28;20204;-85
2023/07/15 10:15:39;;;;;;;16.48;10.48;;;;;;;-143.21;46.16;70470.28;5115410;27;20247;-84
2023/07/15 10:18:18;;;;;;;15.82;11.05;;;;;;;-143.21;46.53;70458.41;5113860;27;20208;-84
2023/07/15 10:20:55;;;;;;;17.90;11.38;;;;;;;-143.21;46.14;70412.81;5110206;28;20196;-85
2023/07/15 10:23:26;;;;;;;15.32;11.10;;;;;;;-143.21;45.56;70377.13;5110275;27;20586;-85
2023/07/15 10:26:03;;;;;;;16.75;10.68;;;;;;;-143.21;44.30;70375.16;5109970;28;20192;-84
2023/07/15 10:28:33;;;;;;;19.17;10.80;;;;;;;-143.21;44.91;70361.28;5110161;28;20206;-84
2023/07/15 10:31:09;;;;;;;17.85;12.25;;;;;;;-143.21;45.25;70335.50;5112529;28;20200;-84
2023/07/15 10:33:37;;;;;;;18.25;11.07;;;;;;;-143.21;44.98;70319.66;5109386;28;20286;-85
2023/07/15 10:36:06;;;;;;;19.00;11.50;;;;;;;-143.21;44.36;70297.84;5111316;28;20587;-84
2023/07/15 10:38:33;;;;;;;16.38;11.38;;;;;;;-143.21;43.62;70293.88;5111068;28;20200;-84
2023/07/15 10:41:03;;;;;;;17.23;11.27;;;;;;;-143.21;43.38;70311.72;5109906;28;20210;-85
2023/07/15 10:43:38;;;;;;;18.30;11.07;;;;;;;-143.21;43.54;70375.16;5114781;27;20207;-84
2023/07/15 10:46:09;;;;;;;19.90;11.40;;;;;;;-143.21;43.17;70353.34;5115049;28;20207;-84
2023/07/15 10:48:36;;;;;;;23.27;11.15;;;;;;;-143.21;43.93;70323.63;5114175;27;20237;-85
2023/07/15 10:51:05;;;;;;;15.93;11.52;;;;;;;-143.21;43.99;70278.03;5117266;27;20283;-85
2023/07/15 10:53:33;;;;;;;20.70;10.27;;;;;;;-143.21;42.67;70240.38;5116550;27;20206;-84
2023/07/15 10:56:03;;;;;;;20.50;10.63;;;;;;;-143.21;41.25;70262.19;5114085;27;20223;-85
2023/07/15 10:58:33;;;;;;;15.98;10.48;;;;;;;-143.21;43.13;70248.28;5117094;27;20218;-84
2023/07/15 11:01:03;;;;;;;13.35;10.60;;;;;;;-143.21;41.34;70307.75;5113872;27;20207;-86
2023/07/15 11:03:31;;;;;;;14.40;11.30;;;;;;;-143.21;43.30;70329.56;5115107;27;20256;-84
2023/07/15 11:05:59;;;;;;;19.38;11.10;;;;;;;-143.21;43.77;70291.91;5113615;28;20200;-83
2023/07/15 11:08:26;;;;;;;19.35;10.98;;;;;;;-143.21;40.96;70373.16;5120868;27;20659;-83